Impacts METAR Board
IDs:

KDTW - Detroit Metro/Wayne, MI, US

Updated at: 1700 UTC 24 Sep 2018
Potential Impact None Slight Moderate High
Time 24/05Z 24/06Z 24/07Z 24/08Z 24/09Z 24/10Z 24/11Z 24/12Z 24/13Z 24/14Z 24/15Z 24/16Z 24/17Z
Temp57 56 55 55 54 55 55 56 60 64 65 66 68
Dewpt50 50 50 51 51 51 52 53 56 58 58 58 59
Altim30.23 30.22 30.21 30.20 30.19 30.19 30.20 30.20 30.21 30.19 30.19 30.17 30.16
VIS10 9 9 9 7 5 4 4 4 9 10 10 10
CIG-- -- 200 200 200 200 -- -- 16 16 15 15 15
CoverFEWSCTBKNBKNBKNBKNSCTSCTOVCOVCOVCOVCOVC
FltCatVFRVFRVFRVFRVFRMVFRMVFRMVFRMVFRMVFRMVFRMVFRMVFR
WX----------BRBRBRBR--------
WDir303030402030303060909090110
WSpd5 5 4 4 4 4 5 5 5 7 6 9 9
WGst-- -- -- -- -- -- -- -- -- -- -- 16 --
Raw hourly METARs
KDTW 240453Z 03005KT 10SM FEW200 14/10 A3023 RMK AO2 SLP235 T01390100 402170089 $
KDTW 240553Z 03005KT 9SM FEW140 SCT200 13/10 A3022 RMK AO2 SLP232 T01330100 10178 20133 58001 $
KDTW 240653Z 03004KT 9SM SCT120 BKN200 13/10 A3021 RMK AO2 SLP229 T01280100 $
KDTW 240753Z 04004KT 9SM SCT120 BKN200 13/11 A3020 RMK AO2 SLP225 T01280106 $
KDTW 240853Z 02004KT 7SM FEW035 SCT120 BKN200 12/11 A3019 RMK AO2 SLP224 T01220106 57008 $
KDTW 240953Z 03004KT 5SM BR FEW035 SCT120 BKN200 13/11 A3019 RMK AO2 SLP223 T01280106 $
KDTW 241053Z 03005KT 4SM BR SCT100 SCT200 13/11 A3020 RMK AO2 SLP225 T01280111 $
KDTW 241153Z 03005KT 4SM BR FEW022 FEW100 SCT200 13/12 A3020 RMK AO2 SLP228 T01330117 10139 20122 53004 $
KDTW 241253Z 06005KT 4SM BR BKN016 OVC100 16/13 A3021 RMK AO2 SLP228 T01560133 $
KDTW 241353Z 09007KT 9SM OVC016 18/14 A3019 RMK AO2 SLP223 T01780144
KDTW 241453Z 09006KT 10SM OVC015 18/14 A3019 RMK AO2 SLP223 T01830144 58004
KDTW 241553Z 09009G16KT 10SM OVC015 19/14 A3017 RMK AO2 SLP216 T01890144
KDTW 241653Z 11009KT 10SM OVC015 20/15 A3016 RMK AO2 SLP212 T02000150



Page loaded:  17:57 UTC  |   10:57 AM Pacific  |   11:57 AM Mountain  |   12:57 PM Central  |   01:57 PM Eastern

 

ADVISORIES

FORECASTS

FORECASTS

OBSERVATIONS

USER TOOLS

ABOUT US